createdAt,value
2023-03-03T00:00:23.064Z,0.119
2023-03-03T00:01:22.930Z,0
2023-03-03T00:02:22.231Z,0.109
2023-03-03T00:03:22.935Z,0
2023-03-03T00:04:22.158Z,0.219
2023-03-03T00:05:21.745Z,0
2023-03-03T00:06:21.727Z,0
2023-03-03T00:07:21.832Z,0
2023-03-03T00:08:21.676Z,0.109
2023-03-03T00:09:21.867Z,0.109
2023-03-03T00:10:36.554Z,0
2023-03-03T00:11:21.684Z,0
2023-03-03T00:12:40.857Z,0
2023-03-03T00:13:22.112Z,0
2023-03-03T00:14:40.564Z,0.109
2023-03-03T00:15:22.111Z,0.340
2023-03-03T00:16:21.818Z,0
2023-03-03T00:17:21.943Z,0
2023-03-03T00:18:21.275Z,0
2023-03-03T00:19:21.932Z,0.109
2023-03-03T00:20:22.771Z,0
2023-03-03T00:21:21.927Z,0
2023-03-03T00:22:22.334Z,0
2023-03-03T00:23:21.676Z,0
2023-03-03T00:24:22.078Z,0
2023-03-03T00:25:21.624Z,0
2023-03-03T00:26:21.463Z,0
2023-03-03T00:27:21.716Z,0
2023-03-03T00:28:21.575Z,0
2023-03-03T00:29:22.335Z,0
2023-03-03T00:30:22.239Z,0
2023-03-03T00:31:21.939Z,0
2023-03-03T00:32:21.906Z,0
2023-03-03T00:33:21.659Z,0
2023-03-03T00:34:21.633Z,0
2023-03-03T00:35:21.526Z,0
2023-03-03T00:36:21.536Z,0.109
2023-03-03T00:37:22.046Z,0
2023-03-03T00:38:21.690Z,0
2023-03-03T00:39:22.029Z,0
2023-03-03T00:40:21.436Z,0
2023-03-03T00:41:22.259Z,0
2023-03-03T00:42:21.392Z,0
2023-03-03T00:43:21.682Z,0
2023-03-03T00:44:21.201Z,0
2023-03-03T00:45:21.778Z,0
2023-03-03T00:46:21.908Z,0
2023-03-03T00:47:21.253Z,0.109
2023-03-03T00:48:21.778Z,0.109
2023-03-03T00:49:21.868Z,0
2023-03-03T00:50:21.671Z,0
2023-03-03T00:51:21.587Z,0
2023-03-03T00:52:21.578Z,0.109
2023-03-03T00:53:20.017Z,0.340
2023-03-03T00:54:21.486Z,0
2023-03-03T00:55:21.636Z,0.219
2023-03-03T00:56:21.444Z,0
2023-03-03T00:57:22.127Z,0.109
2023-03-03T00:58:21.699Z,0
2023-03-03T00:59:21.698Z,0.109
2023-03-03T01:00:21.848Z,0.109
2023-03-03T01:01:24.128Z,0.109
2023-03-03T01:03:21.747Z,0
2023-03-03T01:04:20.977Z,0
2023-03-03T01:05:21.701Z,0
2023-03-03T01:06:21.250Z,0
2023-03-03T01:07:21.644Z,0
2023-03-03T01:08:22.059Z,0
2023-03-03T01:09:21.216Z,0
2023-03-03T01:10:21.616Z,0
2023-03-03T01:11:21.746Z,0
2023-03-03T01:12:21.432Z,0
2023-03-03T01:13:21.580Z,0
2023-03-03T01:14:22.080Z,0
2023-03-03T01:15:21.926Z,0
2023-03-03T01:16:22.109Z,0
2023-03-03T01:17:20.872Z,0
2023-03-03T01:18:21.458Z,0
2023-03-03T01:19:21.666Z,0
2023-03-03T01:20:22.098Z,0
2023-03-03T01:21:21.570Z,0
2023-03-03T01:22:21.663Z,0
2023-03-03T01:23:21.677Z,0
2023-03-03T01:24:21.797Z,0
2023-03-03T01:25:21.626Z,0
2023-03-03T01:26:21.551Z,0
2023-03-03T01:27:21.612Z,0
2023-03-03T01:28:21.548Z,0
2023-03-03T01:29:21.894Z,0
2023-03-03T01:30:21.898Z,0
2023-03-03T01:31:21.249Z,0
2023-03-03T01:32:22.190Z,0
2023-03-03T01:33:21.388Z,0
2023-03-03T01:34:21.857Z,0
2023-03-03T01:35:22.420Z,0
2023-03-03T01:36:21.817Z,0
2023-03-03T01:37:22.238Z,0
2023-03-03T01:38:21.302Z,0
2023-03-03T01:39:22.017Z,0
2023-03-03T01:40:22.134Z,0
2023-03-03T01:41:21.499Z,0
2023-03-03T01:42:21.832Z,0
2023-03-03T01:43:21.001Z,0
2023-03-03T01:44:21.665Z,0
2023-03-03T01:45:22.339Z,0
2023-03-03T01:46:21.648Z,0
2023-03-03T01:47:21.856Z,0
2023-03-03T01:48:21.444Z,0
2023-03-03T01:49:21.656Z,0
2023-03-03T01:50:22.402Z,0
2023-03-03T01:51:21.864Z,0
2023-03-03T01:52:21.420Z,0
2023-03-03T01:53:20.859Z,0
2023-03-03T01:54:21.222Z,0
2023-03-03T01:55:21.662Z,0.109
2023-03-03T01:56:21.769Z,0
2023-03-03T01:57:21.880Z,0
2023-03-03T01:58:21.590Z,0
2023-03-03T01:59:22.088Z,0
2023-03-03T02:00:22.812Z,0
2023-03-03T02:01:22.695Z,0
2023-03-03T02:02:21.908Z,0
2023-03-03T02:03:22.370Z,0
2023-03-03T02:04:21.727Z,0
2023-03-03T02:05:22.622Z,0.109
2023-03-03T02:06:21.558Z,0
2023-03-03T02:07:21.901Z,0
2023-03-03T02:08:22.330Z,0
2023-03-03T02:09:22.316Z,0
2023-03-03T02:10:21.910Z,0
2023-03-03T02:11:21.991Z,0
2023-03-03T02:12:21.742Z,0
2023-03-03T02:13:21.620Z,0
2023-03-03T02:14:21.690Z,0
2023-03-03T02:15:22.072Z,0
2023-03-03T02:16:22.259Z,0.109
2023-03-03T02:17:21.853Z,0
2023-03-03T02:18:22.087Z,0
2023-03-03T02:19:21.631Z,0
2023-03-03T02:20:22.612Z,0
2023-03-03T02:21:21.894Z,0
2023-03-03T02:22:21.605Z,0
2023-03-03T02:23:22.601Z,0
2023-03-03T02:24:21.920Z,0.109
2023-03-03T02:25:21.881Z,0
2023-03-03T02:26:21.802Z,0
2023-03-03T02:27:22.160Z,0
2023-03-03T02:28:21.561Z,0
2023-03-03T02:29:22.174Z,0
2023-03-03T02:30:22.152Z,0.109
2023-03-03T02:31:21.736Z,0
2023-03-03T02:32:21.965Z,0.100
2023-03-03T02:33:21.620Z,0
2023-03-03T02:34:21.198Z,0
2023-03-03T02:35:21.700Z,0.100
2023-03-03T02:36:21.919Z,0
2023-03-03T02:37:21.583Z,0
2023-03-03T02:38:21.291Z,0
2023-03-03T02:39:21.865Z,0
2023-03-03T02:40:21.179Z,0
2023-03-03T02:41:21.219Z,0
2023-03-03T02:42:21.264Z,0
2023-03-03T02:43:21.123Z,0
2023-03-03T02:44:21.634Z,0.109
2023-03-03T02:45:21.891Z,0
2023-03-03T02:46:21.107Z,0
2023-03-03T02:47:20.987Z,0.109
2023-03-03T02:48:21.534Z,0
2023-03-03T02:49:21.455Z,0.109
2023-03-03T02:50:21.850Z,0.109
2023-03-03T02:51:21.699Z,0
2023-03-03T02:52:21.659Z,0.109
2023-03-03T02:53:21.946Z,0
2023-03-03T02:54:21.025Z,0
2023-03-03T02:55:21.519Z,0.109
2023-03-03T02:56:21.877Z,0
2023-03-03T02:57:21.269Z,0.109
2023-03-03T02:58:21.409Z,0.109
2023-03-03T02:59:21.586Z,0.109
2023-03-03T03:00:22.965Z,0
2023-03-03T03:01:22.396Z,0.109
2023-03-03T03:02:21.551Z,0.109
2023-03-03T03:03:22.009Z,0.109
2023-03-03T03:04:22.349Z,0.449
2023-03-03T03:05:21.473Z,0.219
2023-03-03T03:06:21.038Z,0.340
2023-03-03T03:07:21.341Z,0.219
2023-03-03T03:08:21.440Z,0
2023-03-03T03:09:21.563Z,0
2023-03-03T03:10:21.811Z,0.219
2023-03-03T03:11:21.277Z,0.219
2023-03-03T03:12:22.127Z,0.109
2023-03-03T03:13:21.595Z,0.109
2023-03-03T03:14:22.045Z,0.340
2023-03-03T03:15:21.954Z,0.219
2023-03-03T03:16:22.193Z,0.219
2023-03-03T03:17:21.785Z,0.219
2023-03-03T03:18:21.454Z,0.219
2023-03-03T03:19:21.684Z,0.219
2023-03-03T03:20:21.436Z,0.340
2023-03-03T03:21:22.289Z,0.560
2023-03-03T03:22:21.614Z,0.449
2023-03-03T03:23:21.402Z,0
2023-03-03T03:24:21.789Z,0.109
2023-03-03T03:25:22.347Z,0.449
2023-03-03T03:26:21.909Z,0
2023-03-03T03:27:21.213Z,0.109
2023-03-03T03:28:21.038Z,0.449
2023-03-03T03:29:20.933Z,0.340
2023-03-03T03:30:21.050Z,0.219
2023-03-03T03:31:21.394Z,0.340
2023-03-03T03:32:21.633Z,0.340
2023-03-03T03:33:21.593Z,0.219
2023-03-03T03:34:22.067Z,0.219
2023-03-03T03:35:21.756Z,0.680
2023-03-03T03:36:21.493Z,0.340
2023-03-03T03:37:21.943Z,0.109
2023-03-03T03:38:21.177Z,0.449
2023-03-03T03:39:21.817Z,0.219
2023-03-03T03:40:21.961Z,0.109
2023-03-03T03:41:21.753Z,0.219
2023-03-03T03:42:21.580Z,0.219
2023-03-03T03:43:21.761Z,0.219
2023-03-03T03:44:21.419Z,0.560
2023-03-03T03:45:22.032Z,0
2023-03-03T03:46:21.462Z,0.109
2023-03-03T03:47:21.980Z,0.119
2023-03-03T03:48:21.851Z,0.200
2023-03-03T03:49:21.172Z,0.219
2023-03-03T03:50:22.100Z,0.239
2023-03-03T03:51:21.884Z,0.409
2023-03-03T03:52:21.429Z,0.370
2023-03-03T03:53:22.167Z,0.340
2023-03-03T03:54:21.624Z,0.100
2023-03-03T03:55:22.174Z,0.239
2023-03-03T03:56:21.759Z,0.219
2023-03-03T03:57:22.209Z,0.100
2023-03-03T03:58:21.834Z,0.740
2023-03-03T03:59:21.898Z,0.109
2023-03-03T04:00:23.120Z,0.219
2023-03-03T04:01:21.808Z,0.560
2023-03-03T04:02:22.175Z,0.340
2023-03-03T04:03:22.281Z,0.340
2023-03-03T04:04:21.636Z,0.560
2023-03-03T04:05:22.219Z,0.219
2023-03-03T04:06:21.672Z,0.340
2023-03-03T04:07:22.244Z,0.219
2023-03-03T04:08:21.801Z,0
2023-03-03T04:09:21.803Z,0.219
2023-03-03T04:10:21.953Z,0.340
2023-03-03T04:11:22.514Z,0.219
2023-03-03T04:12:22.114Z,0.109
2023-03-03T04:13:21.810Z,0.219
2023-03-03T04:14:22.044Z,0
2023-03-03T04:15:21.808Z,0.560
2023-03-03T04:16:21.944Z,0
2023-03-03T04:17:21.511Z,0.449
2023-03-03T04:18:21.763Z,0.219
2023-03-03T04:19:21.946Z,0.449
2023-03-03T04:20:21.854Z,0.219
2023-03-03T04:21:22.232Z,0.109
2023-03-03T04:22:21.646Z,0.219
2023-03-03T04:23:21.349Z,0.340
2023-03-03T04:24:21.880Z,0.340
2023-03-03T04:25:21.866Z,0.340
2023-03-03T04:26:22.072Z,0.560
2023-03-03T04:27:21.246Z,0.219
2023-03-03T04:28:21.233Z,0.109
2023-03-03T04:29:21.445Z,0.340
2023-03-03T04:30:22.126Z,0.340
2023-03-03T04:31:22.594Z,0.449
2023-03-03T04:32:22.065Z,0.449
2023-03-03T04:33:21.799Z,0.219
2023-03-03T04:34:26.435Z,0.109
2023-03-03T04:35:21.578Z,0.560
2023-03-03T04:36:21.123Z,0.109
2023-03-03T04:37:21.602Z,0.219
2023-03-03T04:38:21.520Z,0.109
2023-03-03T04:39:21.734Z,0.219
2023-03-03T04:40:21.769Z,0.340
2023-03-03T04:41:21.623Z,0.109
2023-03-03T04:42:21.685Z,0.109
2023-03-03T04:43:21.916Z,0.219
2023-03-03T04:44:21.589Z,0.219
2023-03-03T04:45:22.732Z,0.219
2023-03-03T04:46:21.466Z,0.340
2023-03-03T04:47:21.877Z,0.219
2023-03-03T04:48:22.012Z,0.449
2023-03-03T04:49:21.862Z,0.219
2023-03-03T04:50:21.867Z,0.219
2023-03-03T04:51:22.364Z,0.109
2023-03-03T04:52:21.942Z,0.109
2023-03-03T04:53:21.647Z,0.219
2023-03-03T04:54:22.067Z,0.219
2023-03-03T04:55:21.672Z,0.109
2023-03-03T04:56:21.506Z,0
2023-03-03T04:57:21.798Z,0
2023-03-03T04:58:21.169Z,0.219
2023-03-03T04:59:21.692Z,0
2023-03-03T05:00:23.215Z,0.109
2023-03-03T05:01:21.809Z,0.109
2023-03-03T05:02:21.913Z,0.219
2023-03-03T05:03:20.915Z,0.340
2023-03-03T05:04:22.180Z,0.219
2023-03-03T05:05:22.063Z,0.219
2023-03-03T05:06:21.857Z,0.340
2023-03-03T05:07:21.642Z,0
2023-03-03T05:08:21.432Z,0.370
2023-03-03T05:09:21.790Z,0.100
2023-03-03T05:10:22.489Z,0.219
2023-03-03T05:11:21.762Z,0.490
2023-03-03T05:12:21.665Z,0.200
2023-03-03T05:13:21.372Z,0.239
2023-03-03T05:14:21.737Z,0.340
2023-03-03T05:15:22.064Z,0.100
2023-03-03T05:16:21.675Z,0.119
2023-03-03T05:17:22.115Z,0.219
2023-03-03T05:18:21.676Z,0.109
2023-03-03T05:19:21.669Z,0.219
2023-03-03T05:20:21.810Z,0.219
2023-03-03T05:21:21.379Z,0.340
2023-03-03T05:22:21.391Z,0.449
2023-03-03T05:23:21.703Z,0.219
2023-03-03T05:24:21.955Z,0.340
2023-03-03T05:25:22.228Z,0.560
2023-03-03T05:26:21.615Z,0.219
2023-03-03T05:27:21.705Z,0
2023-03-03T05:28:22.192Z,0
2023-03-03T05:29:22.214Z,0
2023-03-03T05:30:22.505Z,0
2023-03-03T05:31:22.134Z,0
2023-03-03T05:32:22.165Z,0
2023-03-03T05:33:21.570Z,0
2023-03-03T05:34:22.330Z,0
2023-03-03T05:35:22.129Z,0
2023-03-03T05:36:22.181Z,0
2023-03-03T05:37:21.720Z,0
2023-03-03T05:38:21.939Z,0
2023-03-03T05:39:21.802Z,0
2023-03-03T05:40:21.943Z,0
2023-03-03T05:41:21.398Z,0
2023-03-03T05:42:22.219Z,13600
2023-03-03T05:43:21.830Z,0
2023-03-03T05:44:21.207Z,0
2023-03-03T05:45:21.702Z,0
2023-03-03T05:46:22.120Z,0
2023-03-03T05:47:21.515Z,0
2023-03-03T05:48:21.521Z,0
2023-03-03T05:49:21.954Z,0.050
2023-03-03T05:50:21.880Z,0
2023-03-03T05:51:22.013Z,0
2023-03-03T05:52:21.843Z,0.560
2023-03-03T05:53:21.336Z,0.170
2023-03-03T05:54:21.408Z,0
2023-03-03T05:55:21.870Z,0.219
2023-03-03T05:56:21.661Z,0.449
2023-03-03T05:57:21.697Z,0.819
2023-03-03T05:58:21.947Z,1.200
2023-03-03T05:59:21.589Z,1.159
2023-03-03T06:00:22.791Z,2.390
2023-03-03T06:01:22.147Z,1.75
2023-03-03T06:02:22.194Z,2.720
2023-03-03T06:03:22.133Z,3.75
2023-03-03T06:04:22.203Z,4.570
2023-03-03T06:05:22.394Z,6.219
2023-03-03T06:06:21.939Z,6.340
2023-03-03T06:07:22.074Z,6.889
2023-03-03T06:08:21.263Z,7.900
2023-03-03T06:09:21.785Z,8.770
2023-03-03T06:10:21.627Z,9.510
2023-03-03T06:11:21.972Z,10.84
2023-03-03T06:12:22.178Z,12.23
2023-03-03T06:13:22.284Z,15
2023-03-03T06:14:22.514Z,17.17
2023-03-03T06:15:21.648Z,18.52
2023-03-03T06:16:22.190Z,18.61
2023-03-03T06:17:21.935Z,20.27
2023-03-03T06:18:21.839Z,21.84
2023-03-03T06:19:21.431Z,24.05
2023-03-03T06:20:22.591Z,26.70
2023-03-03T06:21:22.673Z,28.93
2023-03-03T06:22:22.071Z,30
2023-03-03T06:23:21.992Z,33.52
2023-03-03T06:24:21.948Z,36.31
2023-03-03T06:25:21.448Z,37.66
2023-03-03T06:26:22.029Z,37.09
2023-03-03T06:27:21.710Z,37.61
2023-03-03T06:28:21.753Z,39.29
2023-03-03T06:29:21.667Z,44
2023-03-03T06:30:22.033Z,49.59
2023-03-03T06:31:21.838Z,54.40
2023-03-03T06:32:21.761Z,58.79
2023-03-03T06:33:21.716Z,64.90
2023-03-03T06:34:21.857Z,73
2023-03-03T06:35:21.509Z,78.34
2023-03-03T06:36:21.864Z,81.69
2023-03-03T06:37:21.631Z,81.69
2023-03-03T06:38:21.363Z,80.80
2023-03-03T06:39:21.880Z,83.43
2023-03-03T06:40:22.213Z,83.79
2023-03-03T06:41:21.526Z,85.40
2023-03-03T06:42:22.048Z,92.09
2023-03-03T06:43:21.658Z,98.90
2023-03-03T06:44:21.770Z,104.5
2023-03-03T06:45:22.504Z,108.6
2023-03-03T06:46:21.980Z,111
2023-03-03T06:47:21.298Z,122.9
2023-03-03T06:48:21.733Z,124.5
2023-03-03T06:49:21.716Z,119.3
2023-03-03T06:50:22.015Z,120.9
2023-03-03T06:51:22.497Z,125
2023-03-03T06:52:21.449Z,136.3
2023-03-03T06:53:21.976Z,138.9
2023-03-03T06:54:22.747Z,140.1
2023-03-03T06:55:22.365Z,148
2023-03-03T06:56:21.916Z,152.6
2023-03-03T06:57:21.733Z,148.3
2023-03-03T06:58:21.991Z,144.1
2023-03-03T06:59:22.052Z,140.6
2023-03-03T07:00:24.003Z,151
2023-03-03T07:01:23.132Z,163.1
2023-03-03T07:02:22.185Z,167.3
2023-03-03T07:03:29.499Z,172.1
2023-03-03T07:04:22.395Z,178.8
2023-03-03T07:05:21.817Z,183.3
2023-03-03T07:06:22.417Z,189
2023-03-03T07:07:22.081Z,198
2023-03-03T07:08:22.406Z,210
2023-03-03T07:09:21.987Z,221.2
2023-03-03T07:10:22.158Z,223.8
2023-03-03T07:11:21.437Z,228
2023-03-03T07:12:21.738Z,244
2023-03-03T07:13:21.402Z,249
2023-03-03T07:14:21.957Z,265
2023-03-03T07:15:22.300Z,285
2023-03-03T07:16:22.108Z,304
2023-03-03T07:17:22.099Z,311.8
2023-03-03T07:18:21.062Z,304
2023-03-03T07:19:22.058Z,285.8
2023-03-03T07:20:21.445Z,289
2023-03-03T07:21:21.891Z,307
2023-03-03T07:22:21.984Z,317
2023-03-03T07:23:21.559Z,312.6
2023-03-03T07:24:21.702Z,310.7
2023-03-03T07:25:22.454Z,305.2
2023-03-03T07:26:21.757Z,303.7
2023-03-03T07:27:21.431Z,307
2023-03-03T07:28:21.762Z,308.7
2023-03-03T07:29:22.259Z,326
2023-03-03T07:30:21.498Z,350
2023-03-03T07:31:21.225Z,390
2023-03-03T07:32:22.116Z,384
2023-03-03T07:33:21.632Z,368
2023-03-03T07:34:21.269Z,365
2023-03-03T07:35:22.178Z,370.2
2023-03-03T07:36:21.582Z,363.8
2023-03-03T07:37:21.322Z,351
2023-03-03T07:38:21.468Z,344.2
2023-03-03T07:39:22.064Z,340.2
2023-03-03T07:40:21.949Z,344
2023-03-03T07:41:21.555Z,366
2023-03-03T07:42:21.918Z,390
2023-03-03T07:43:22.105Z,418.1
2023-03-03T07:44:21.916Z,408
2023-03-03T07:45:21.983Z,403.6
2023-03-03T07:46:22.562Z,411.5
2023-03-03T07:47:21.529Z,415.2
2023-03-03T07:48:21.795Z,415.5
2023-03-03T07:49:21.541Z,420
2023-03-03T07:50:22.516Z,460
2023-03-03T07:51:21.501Z,491.7
2023-03-03T07:52:22.089Z,492.7
2023-03-03T07:53:22.123Z,503.3
2023-03-03T07:54:21.385Z,489
2023-03-03T07:55:22.113Z,470
2023-03-03T07:56:21.986Z,482
2023-03-03T07:57:21.778Z,505
2023-03-03T07:58:21.446Z,500
2023-03-03T07:59:22.090Z,480
2023-03-03T08:00:22.582Z,487
2023-03-03T08:01:22.233Z,508
2023-03-03T08:02:22.358Z,528.0
2023-03-03T08:03:22.188Z,521
2023-03-03T08:04:22.157Z,489
2023-03-03T08:05:22.396Z,483
2023-03-03T08:06:21.435Z,520
2023-03-03T08:07:22.387Z,580
2023-03-03T08:08:22.334Z,570
2023-03-03T08:09:21.399Z,520
2023-03-03T08:10:22.351Z,530
2023-03-03T08:11:22.322Z,560
2023-03-03T08:12:22.321Z,630
2023-03-03T08:13:21.906Z,671
2023-03-03T08:14:21.409Z,655
2023-03-03T08:15:22.045Z,641.7
2023-03-03T08:16:21.507Z,650
2023-03-03T08:17:22.254Z,678
2023-03-03T08:18:21.883Z,681
2023-03-03T08:19:21.278Z,700
2023-03-03T08:20:21.891Z,724
2023-03-03T08:21:21.467Z,701
2023-03-03T08:22:21.824Z,673
2023-03-03T08:23:22.380Z,669
2023-03-03T08:24:22.400Z,710
2023-03-03T08:25:22.241Z,755
2023-03-03T08:26:21.587Z,766.2
2023-03-03T08:27:22.309Z,760
2023-03-03T08:28:22.046Z,762.4
2023-03-03T08:29:22.088Z,767
2023-03-03T08:30:21.892Z,789
2023-03-03T08:31:38.469Z,805.2
2023-03-03T08:32:21.820Z,801.5
2023-03-03T08:33:21.900Z,806
2023-03-03T08:34:21.307Z,801
2023-03-03T08:35:21.469Z,805.5
2023-03-03T08:36:21.709Z,793
2023-03-03T08:37:22.025Z,783
2023-03-03T08:38:21.622Z,802
2023-03-03T08:39:22.171Z,770
2023-03-03T08:40:21.710Z,769
2023-03-03T08:41:22.355Z,806
2023-03-03T08:42:21.816Z,811
2023-03-03T08:43:21.876Z,805
2023-03-03T08:44:21.742Z,820
2023-03-03T08:45:21.814Z,888
2023-03-03T08:46:21.349Z,899
2023-03-03T08:47:21.772Z,907
2023-03-03T08:48:21.917Z,940
2023-03-03T08:49:21.312Z,985
2023-03-03T08:50:21.946Z,990
2023-03-03T08:51:22.055Z,990
2023-03-03T08:52:21.170Z,990
2023-03-03T08:53:21.652Z,1046
2023-03-03T08:54:21.838Z,1030
2023-03-03T08:55:21.961Z,999.7
2023-03-03T08:56:21.297Z,1006
2023-03-03T08:57:21.931Z,1009
2023-03-03T08:58:23.823Z,967
2023-03-03T08:59:21.882Z,980
2023-03-03T09:00:22.427Z,996
2023-03-03T09:01:22.827Z,1013
2023-03-03T09:02:21.631Z,1025
2023-03-03T09:03:21.779Z,1018
2023-03-03T09:04:21.699Z,994
2023-03-03T09:05:21.550Z,989
2023-03-03T09:06:22.488Z,998
2023-03-03T09:07:22.226Z,984
2023-03-03T09:08:21.809Z,949
2023-03-03T09:09:21.968Z,950
2023-03-03T09:10:21.988Z,1000
2023-03-03T09:11:22.150Z,1070
2023-03-03T09:12:22.141Z,1082
2023-03-03T09:13:22.288Z,1050
2023-03-03T09:14:22.129Z,1022
2023-03-03T09:15:21.984Z,1040
2023-03-03T09:16:22.017Z,1085
2023-03-03T09:17:22.143Z,1070
2023-03-03T09:18:26.831Z,1030
2023-03-03T09:19:21.162Z,1013.
2023-03-03T09:20:21.705Z,1018
2023-03-03T09:21:21.517Z,1031.
2023-03-03T09:22:21.796Z,1022.
2023-03-03T09:23:21.670Z,1021.
2023-03-03T09:24:22.175Z,1022.
2023-03-03T09:25:22.216Z,1005
2023-03-03T09:26:21.999Z,981
2023-03-03T09:27:22.418Z,980
2023-03-03T09:28:21.389Z,1000
2023-03-03T09:29:22.032Z,1150
2023-03-03T09:30:22.098Z,1120
2023-03-03T09:31:22.303Z,1082
2023-03-03T09:32:22.242Z,1130
2023-03-03T09:33:22.091Z,1181
2023-03-03T09:34:21.747Z,1157
2023-03-03T09:35:22.520Z,1170
2023-03-03T09:36:30.228Z,1209
2023-03-03T09:37:21.710Z,1180
2023-03-03T09:38:21.936Z,1177
2023-03-03T09:39:22.135Z,1210
2023-03-03T09:40:22.066Z,1231
2023-03-03T09:41:22.018Z,1200
2023-03-03T09:42:22.105Z,1160
2023-03-03T09:43:21.974Z,1130
2023-03-03T09:44:21.387Z,1137
2023-03-03T09:45:22.709Z,1153.
2023-03-03T09:46:22.226Z,1130
2023-03-03T09:47:22.376Z,1115
2023-03-03T09:48:21.664Z,1150
2023-03-03T09:49:23.413Z,1170.
2023-03-03T09:50:21.876Z,1170
2023-03-03T09:51:21.500Z,1200
2023-03-03T09:52:21.845Z,1329
2023-03-03T09:53:22.401Z,1280
2023-03-03T09:54:22.208Z,1243
2023-03-03T09:55:25.168Z,1260
2023-03-03T09:56:22.181Z,1300
2023-03-03T09:57:21.384Z,1300
2023-03-03T09:58:21.532Z,1285
2023-03-03T09:59:22.146Z,1300
2023-03-03T10:00:22.430Z,1414
2023-03-03T10:01:21.878Z,1360
2023-03-03T10:02:22.171Z,1340
2023-03-03T10:03:22.273Z,1345
2023-03-03T10:04:21.861Z,1390
2023-03-03T10:05:21.574Z,1460
2023-03-03T10:06:22.215Z,1513
2023-03-03T10:07:22.046Z,1540
2023-03-03T10:08:21.828Z,1600
2023-03-03T10:09:22.209Z,1710
2023-03-03T10:10:22.511Z,1640
2023-03-03T10:11:21.880Z,1600
2023-03-03T10:12:22.105Z,1800
2023-03-03T10:13:21.730Z,1890
2023-03-03T10:14:22.188Z,1820
2023-03-03T10:15:22.121Z,1803
2023-03-03T10:16:22.105Z,1829
2023-03-03T10:17:21.666Z,1821
2023-03-03T10:18:22.271Z,1770
2023-03-03T10:19:22.246Z,1690
2023-03-03T10:20:22.878Z,1630
2023-03-03T10:21:22.163Z,1590
2023-03-03T10:22:22.179Z,1530
2023-03-03T10:23:21.748Z,1518.
2023-03-03T10:24:22.172Z,1522
2023-03-03T10:25:21.692Z,1540.
2023-03-03T10:26:29.005Z,1500
2023-03-03T10:27:22.234Z,1500
2023-03-03T10:28:21.628Z,1600
2023-03-03T10:29:22.556Z,1800
2023-03-03T10:30:38.426Z,1900
2023-03-03T10:31:28.381Z,2100
2023-03-03T10:32:22.828Z,2000
2023-03-03T10:33:22.593Z,1900
2023-03-03T10:34:21.971Z,1820
2023-03-03T10:35:22.067Z,1797
2023-03-03T10:36:21.743Z,1760
2023-03-03T10:37:21.793Z,1700
2023-03-03T10:38:21.863Z,1700
2023-03-03T10:39:22.056Z,1779
2023-03-03T10:40:22.310Z,1730
2023-03-03T10:41:21.962Z,1600
2023-03-03T10:42:21.674Z,1540
2023-03-03T10:43:31.045Z,1539
2023-03-03T10:44:21.905Z,1533
2023-03-03T10:45:22.268Z,1500
2023-03-03T10:46:21.496Z,1690
2023-03-03T10:47:22.396Z,1670
2023-03-03T10:48:22.144Z,1656
2023-03-03T10:49:22.213Z,1630
2023-03-03T10:50:22.519Z,1575
2023-03-03T10:51:22.099Z,1630
2023-03-03T10:52:22.082Z,1670
2023-03-03T10:53:21.960Z,1643
2023-03-03T10:54:21.811Z,1670
2023-03-03T10:55:21.861Z,1703.
2023-03-03T10:56:21.662Z,1714
2023-03-03T10:57:21.844Z,1750
2023-03-03T10:58:22.030Z,1760
2023-03-03T10:59:22.502Z,1743
2023-03-03T11:00:22.930Z,1765
2023-03-03T11:01:24.489Z,1748
2023-03-03T11:02:21.855Z,1740
2023-03-03T11:03:21.275Z,1800
2023-03-03T11:04:22.489Z,1900
2023-03-03T11:05:22.949Z,1970
2023-03-03T11:06:23.099Z,1920
2023-03-03T11:07:22.307Z,1930
2023-03-03T11:08:22.752Z,1940
2023-03-03T11:09:22.453Z,1890
2023-03-03T11:10:22.092Z,1910
2023-03-03T11:11:21.601Z,1939.
2023-03-03T11:12:22.775Z,1939
2023-03-03T11:13:22.067Z,1970
2023-03-03T11:14:21.900Z,2010
2023-03-03T11:15:22.211Z,2020
2023-03-03T11:16:21.869Z,1900
2023-03-03T11:17:22.331Z,1830
2023-03-03T11:18:25.774Z,1803
2023-03-03T11:19:22.223Z,1800
2023-03-03T11:20:22.449Z,1815.
2023-03-03T11:21:22.249Z,1809.
2023-03-03T11:22:21.748Z,1820
2023-03-03T11:23:22.059Z,1890
2023-03-03T11:24:24.113Z,1960
2023-03-03T11:25:22.708Z,1940
2023-03-03T11:26:21.728Z,1930.
2023-03-03T11:27:23.174Z,1960
2023-03-03T11:28:22.470Z,2010
2023-03-03T11:29:21.844Z,2037
2023-03-03T11:30:22.021Z,2060
2023-03-03T11:31:21.569Z,2100
2023-03-03T11:32:22.189Z,2200
2023-03-03T11:33:21.618Z,2312
2023-03-03T11:34:21.425Z,2280
2023-03-03T11:35:21.915Z,2230
2023-03-03T11:36:21.375Z,2180
2023-03-03T11:37:21.366Z,2200
2023-03-03T11:38:21.722Z,2280
2023-03-03T11:39:22.209Z,2307
2023-03-03T11:40:21.735Z,2340
2023-03-03T11:41:21.832Z,2357
2023-03-03T11:42:23.625Z,2340
2023-03-03T11:43:35.603Z,2400
2023-03-03T11:44:21.751Z,2520
2023-03-03T11:45:22.804Z,2550
2023-03-03T11:46:21.691Z,2600
2023-03-03T11:47:21.823Z,2800
2023-03-03T11:48:21.476Z,2980
2023-03-03T11:49:21.495Z,3020
2023-03-03T11:50:22.192Z,2900
2023-03-03T11:51:20.915Z,2830
2023-03-03T11:52:21.643Z,2800
2023-03-03T11:53:21.485Z,2824
2023-03-03T11:54:21.495Z,2800
2023-03-03T11:55:30.131Z,2940
2023-03-03T11:56:21.390Z,2800
2023-03-03T11:57:29.917Z,2760
2023-03-03T11:58:21.866Z,2680
2023-03-03T11:59:22.084Z,2600
2023-03-03T12:00:23.043Z,2600
2023-03-03T12:01:35.600Z,2660
2023-03-03T12:02:21.876Z,2700
2023-03-03T12:03:21.411Z,2850
2023-03-03T12:04:22.147Z,2900
2023-03-03T12:05:21.871Z,2990
2023-03-03T12:06:21.600Z,2800
2023-03-03T12:07:22.227Z,2780
2023-03-03T12:08:21.443Z,2900
2023-03-03T12:09:21.668Z,2940
2023-03-03T12:10:22.757Z,2880
2023-03-03T12:11:35.726Z,2800
2023-03-03T12:12:22.208Z,2600
2023-03-03T12:13:21.881Z,2500
2023-03-03T12:14:21.844Z,2500
2023-03-03T12:15:36.150Z,2455
2023-03-03T12:16:22.405Z,2400
2023-03-03T12:17:21.887Z,2380
2023-03-03T12:18:21.432Z,2408
2023-03-03T12:19:22.054Z,2420
2023-03-03T12:20:21.814Z,2470
2023-03-03T12:21:22.316Z,2526
2023-03-03T12:22:21.292Z,2502
2023-03-03T12:23:22.087Z,2450
2023-03-03T12:24:22.222Z,2360
2023-03-03T12:25:21.645Z,2338
2023-03-03T12:26:21.665Z,2390
2023-03-03T12:27:21.870Z,2470
2023-03-03T12:28:21.150Z,2486.
2023-03-03T12:29:21.873Z,2480
2023-03-03T12:30:22.334Z,2477
2023-03-03T12:31:44.187Z,2481.
2023-03-03T12:32:22.278Z,2450
2023-03-03T12:33:22.051Z,2410
2023-03-03T12:34:21.801Z,2359
2023-03-03T12:35:22.642Z,2350.
2023-03-03T12:36:21.965Z,2347
2023-03-03T12:38:23.147Z,2230
2023-03-03T12:39:34.158Z,2170
2023-03-03T12:40:22.133Z,2190
2023-03-03T12:42:23.025Z,2287
2023-03-03T12:43:21.859Z,2291
2023-03-03T12:44:21.634Z,2290
2023-03-03T12:45:22.164Z,2350
2023-03-03T12:46:28.502Z,2402.
2023-03-03T12:47:23.344Z,2400
2023-03-03T12:48:21.428Z,2430
2023-03-03T12:49:21.503Z,2430
2023-03-03T12:50:21.879Z,2413
2023-03-03T12:51:21.771Z,2410
2023-03-03T12:52:21.748Z,2460
2023-03-03T12:53:21.488Z,2497.
2023-03-03T12:54:22.021Z,2495.
2023-03-03T12:55:21.684Z,2470
2023-03-03T12:56:22.064Z,2410
2023-03-03T12:57:21.716Z,2401
2023-03-03T12:58:22.134Z,2440
2023-03-03T12:59:22.023Z,2470.
2023-03-03T13:00:23.479Z,2471
2023-03-03T13:01:22.521Z,2510
2023-03-03T13:02:21.718Z,2570
2023-03-03T13:03:22.969Z,2605.
2023-03-03T13:04:21.872Z,2560
2023-03-03T13:05:22.728Z,2400
2023-03-03T13:06:21.485Z,2410
2023-03-03T13:07:21.983Z,2478
2023-03-03T13:08:22.186Z,2410
2023-03-03T13:09:22.122Z,2310
2023-03-03T13:10:21.492Z,2252
2023-03-03T13:11:22.680Z,2245.
2023-03-03T13:12:22.079Z,2200
2023-03-03T13:14:23.052Z,2140
2023-03-03T13:16:31.971Z,2321
2023-03-03T13:17:22.455Z,2338.
2023-03-03T13:18:21.921Z,2341
2023-03-03T13:19:21.534Z,2330
2023-03-03T13:20:22.522Z,2200
2023-03-03T13:21:22.050Z,2070
2023-03-03T13:22:21.798Z,2070
2023-03-03T13:23:21.605Z,2110
2023-03-03T13:24:22.545Z,2200
2023-03-03T13:25:22.551Z,2280
2023-03-03T13:26:21.424Z,2210
2023-03-03T13:27:21.823Z,2210
2023-03-03T13:28:21.913Z,2270
2023-03-03T13:29:22.351Z,2294
2023-03-03T13:30:22.098Z,2230
2023-03-03T13:31:21.803Z,2160
2023-03-03T13:32:22.005Z,2170
2023-03-03T13:33:21.375Z,2198
2023-03-03T13:34:21.737Z,2240
2023-03-03T13:35:22.512Z,2300